sensor_id;sensor_type;location;lat;lon;timestamp;temperature;humidity
56332;DHT22;42237;53.340;6.812;2022-09-01T00:01:46;15.20;99.90
56332;DHT22;42237;53.340;6.812;2022-09-01T00:04:15;15.20;99.90
56332;DHT22;42237;53.340;6.812;2022-09-01T00:06:41;15.20;99.90
56332;DHT22;42237;53.340;6.812;2022-09-01T00:09:10;15.20;99.90
56332;DHT22;42237;53.340;6.812;2022-09-01T00:11:38;15.20;99.90
56332;DHT22;42237;53.340;6.812;2022-09-01T00:14:05;15.10;99.90
56332;DHT22;42237;53.340;6.812;2022-09-01T00:16:32;15.10;99.90
56332;DHT22;42237;53.340;6.812;2022-09-01T00:18:58;15.10;99.90
56332;DHT22;42237;53.340;6.812;2022-09-01T00:21:28;15.10;99.90
56332;DHT22;42237;53.340;6.812;2022-09-01T00:23:54;15.20;99.90
56332;DHT22;42237;53.340;6.812;2022-09-01T00:26:20;15.10;99.90
56332;DHT22;42237;53.340;6.812;2022-09-01T00:28:45;15.10;99.90
56332;DHT22;42237;53.340;6.812;2022-09-01T00:31:12;15.20;99.90
56332;DHT22;42237;53.340;6.812;2022-09-01T00:33:40;15.10;99.90
56332;DHT22;42237;53.340;6.812;2022-09-01T00:36:06;15.10;99.90
56332;DHT22;42237;53.340;6.812;2022-09-01T00:38:33;15.10;99.90
56332;DHT22;42237;53.340;6.812;2022-09-01T00:40:59;15.10;99.90
56332;DHT22;42237;53.340;6.812;2022-09-01T00:43:44;15.10;99.90
56332;DHT22;42237;53.340;6.812;2022-09-01T00:46:17;15.10;99.90
56332;DHT22;42237;53.340;6.812;2022-09-01T00:48:43;15.10;99.90
56332;DHT22;42237;53.340;6.812;2022-09-01T00:51:10;15.00;99.90
56332;DHT22;42237;53.340;6.812;2022-09-01T00:53:37;15.00;99.90
56332;DHT22;42237;53.340;6.812;2022-09-01T00:56:06;15.00;99.90
56332;DHT22;42237;53.340;6.812;2022-09-01T00:58:33;15.00;99.90
56332;DHT22;42237;53.340;6.812;2022-09-01T01:01:00;15.00;99.90
56332;DHT22;42237;53.340;6.812;2022-09-01T01:03:26;15.00;99.90
56332;DHT22;42237;53.340;6.812;2022-09-01T01:05:57;15.00;99.90
56332;DHT22;42237;53.340;6.812;2022-09-01T01:08:30;15.00;99.90
56332;DHT22;42237;53.340;6.812;2022-09-01T01:11:18;15.00;99.90
56332;DHT22;42237;53.340;6.812;2022-09-01T01:14:01;15.00;99.90
56332;DHT22;42237;53.340;6.812;2022-09-01T01:16:34;15.00;99.90
56332;DHT22;42237;53.340;6.812;2022-09-01T01:19:00;15.00;99.90
56332;DHT22;42237;53.340;6.812;2022-09-01T01:21:34;15.00;99.90
56332;DHT22;42237;53.340;6.812;2022-09-01T01:24:30;15.00;99.90
56332;DHT22;42237;53.340;6.812;2022-09-01T01:26:57;15.00;99.90
56332;DHT22;42237;53.340;6.812;2022-09-01T01:29:30;15.00;99.90
56332;DHT22;42237;53.340;6.812;2022-09-01T01:31:57;15.00;99.90
56332;DHT22;42237;53.340;6.812;2022-09-01T01:34:23;15.10;99.90
56332;DHT22;42237;53.340;6.812;2022-09-01T01:36:49;15.10;99.90
56332;DHT22;42237;53.340;6.812;2022-09-01T01:39:18;15.10;99.90
56332;DHT22;42237;53.340;6.812;2022-09-01T01:41:45;15.10;99.90
56332;DHT22;42237;53.340;6.812;2022-09-01T01:44:15;15.10;99.90
56332;DHT22;42237;53.340;6.812;2022-09-01T01:46:45;15.10;99.90
56332;DHT22;42237;53.340;6.812;2022-09-01T01:49:13;15.10;99.90
56332;DHT22;42237;53.340;6.812;2022-09-01T01:51:43;15.10;99.90
56332;DHT22;42237;53.340;6.812;2022-09-01T01:54:09;15.00;99.90
56332;DHT22;42237;53.340;6.812;2022-09-01T01:56:35;15.00;99.90
56332;DHT22;42237;53.340;6.812;2022-09-01T01:59:04;15.00;99.90
56332;DHT22;42237;53.340;6.812;2022-09-01T02:01:32;15.00;99.90
56332;DHT22;42237;53.340;6.812;2022-09-01T02:03:59;15.00;99.90
56332;DHT22;42237;53.340;6.812;2022-09-01T02:06:27;15.00;99.90
56332;DHT22;42237;53.340;6.812;2022-09-01T02:08:54;15.00;99.90
56332;DHT22;42237;53.340;6.812;2022-09-01T02:11:24;15.00;99.90
56332;DHT22;42237;53.340;6.812;2022-09-01T02:13:51;15.00;99.90
56332;DHT22;42237;53.340;6.812;2022-09-01T02:16:21;15.00;99.90
56332;DHT22;42237;53.340;6.812;2022-09-01T02:18:47;14.90;99.90
56332;DHT22;42237;53.340;6.812;2022-09-01T02:21:16;15.00;99.90
56332;DHT22;42237;53.340;6.812;2022-09-01T02:23:54;14.90;99.90
56332;DHT22;42237;53.340;6.812;2022-09-01T02:26:34;15.00;99.90
56332;DHT22;42237;53.340;6.812;2022-09-01T02:29:06;15.00;99.90
56332;DHT22;42237;53.340;6.812;2022-09-01T02:31:35;15.00;99.90
56332;DHT22;42237;53.340;6.812;2022-09-01T02:34:04;15.00;99.90
56332;DHT22;42237;53.340;6.812;2022-09-01T02:36:33;15.00;99.90
56332;DHT22;42237;53.340;6.812;2022-09-01T02:38:59;15.00;99.90
56332;DHT22;42237;53.340;6.812;2022-09-01T02:41:25;15.00;99.90
56332;DHT22;42237;53.340;6.812;2022-09-01T02:43:56;15.00;99.90
56332;DHT22;42237;53.340;6.812;2022-09-01T02:46:24;15.10;99.90
56332;DHT22;42237;53.340;6.812;2022-09-01T02:48:51;15.00;99.90
56332;DHT22;42237;53.340;6.812;2022-09-01T02:51:20;15.00;99.90
56332;DHT22;42237;53.340;6.812;2022-09-01T02:53:47;15.00;99.90
56332;DHT22;42237;53.340;6.812;2022-09-01T02:56:15;15.10;99.90
56332;DHT22;42237;53.340;6.812;2022-09-01T02:58:44;15.10;99.90
56332;DHT22;42237;53.340;6.812;2022-09-01T03:01:17;15.10;99.90
56332;DHT22;42237;53.340;6.812;2022-09-01T03:03:45;15.10;99.90
56332;DHT22;42237;53.340;6.812;2022-09-01T03:06:11;15.10;99.90
56332;DHT22;42237;53.340;6.812;2022-09-01T03:08:37;15.10;99.90
56332;DHT22;42237;53.340;6.812;2022-09-01T03:11:05;15.10;99.90
56332;DHT22;42237;53.340;6.812;2022-09-01T03:13:36;15.10;99.90
56332;DHT22;42237;53.340;6.812;2022-09-01T03:16:04;15.10;99.90
56332;DHT22;42237;53.340;6.812;2022-09-01T03:18:30;15.10;99.90
56332;DHT22;42237;53.340;6.812;2022-09-01T03:20:56;15.10;99.90
56332;DHT22;42237;53.340;6.812;2022-09-01T03:23:22;15.10;99.90
56332;DHT22;42237;53.340;6.812;2022-09-01T03:25:50;15.10;99.90
56332;DHT22;42237;53.340;6.812;2022-09-01T03:28:16;15.00;99.90
56332;DHT22;42237;53.340;6.812;2022-09-01T03:30:48;15.00;99.90
56332;DHT22;42237;53.340;6.812;2022-09-01T03:33:14;15.00;99.90
56332;DHT22;42237;53.340;6.812;2022-09-01T03:35:42;15.00;99.90
56332;DHT22;42237;53.340;6.812;2022-09-01T03:38:09;15.00;99.90
56332;DHT22;42237;53.340;6.812;2022-09-01T03:40:38;14.90;99.90
56332;DHT22;42237;53.340;6.812;2022-09-01T03:43:06;14.90;99.90
56332;DHT22;42237;53.340;6.812;2022-09-01T03:45:35;14.90;99.90
56332;DHT22;42237;53.340;6.812;2022-09-01T03:48:06;14.90;99.90
56332;DHT22;42237;53.340;6.812;2022-09-01T03:50:35;14.80;99.90
56332;DHT22;42237;53.340;6.812;2022-09-01T03:53:06;14.80;99.90
56332;DHT22;42237;53.340;6.812;2022-09-01T03:55:34;14.80;99.90
56332;DHT22;42237;53.340;6.812;2022-09-01T03:58:07;14.80;99.90
56332;DHT22;42237;53.340;6.812;2022-09-01T04:00:40;14.80;99.90
56332;DHT22;42237;53.340;6.812;2022-09-01T04:03:08;14.70;99.90
56332;DHT22;42237;53.340;6.812;2022-09-01T04:05:37;14.70;99.90
56332;DHT22;42237;53.340;6.812;2022-09-01T04:08:05;14.70;99.90
56332;DHT22;42237;53.340;6.812;2022-09-01T04:10:38;14.70;99.90
56332;DHT22;42237;53.340;6.812;2022-09-01T04:13:08;14.70;99.90
56332;DHT22;42237;53.340;6.812;2022-09-01T04:15:37;14.80;99.90
56332;DHT22;42237;53.340;6.812;2022-09-01T04:18:03;14.70;99.90
56332;DHT22;42237;53.340;6.812;2022-09-01T04:20:38;14.70;99.90
56332;DHT22;42237;53.340;6.812;2022-09-01T04:25:41;14.60;99.90
56332;DHT22;42237;53.340;6.812;2022-09-01T04:28:07;14.70;99.90
56332;DHT22;42237;53.340;6.812;2022-09-01T04:30:42;14.70;99.90
56332;DHT22;42237;53.340;6.812;2022-09-01T04:33:08;14.70;99.90
56332;DHT22;42237;53.340;6.812;2022-09-01T04:35:38;14.70;99.90
56332;DHT22;42237;53.340;6.812;2022-09-01T04:38:05;14.60;99.90
56332;DHT22;42237;53.340;6.812;2022-09-01T04:40:39;14.60;99.90
56332;DHT22;42237;53.340;6.812;2022-09-01T04:43:06;14.60;99.90
56332;DHT22;42237;53.340;6.812;2022-09-01T04:45:34;14.50;99.90
56332;DHT22;42237;53.340;6.812;2022-09-01T04:48:02;14.60;99.90
56332;DHT22;42237;53.340;6.812;2022-09-01T04:50:28;14.60;99.90
56332;DHT22;42237;53.340;6.812;2022-09-01T04:53:00;14.60;99.90
56332;DHT22;42237;53.340;6.812;2022-09-01T04:55:28;14.60;99.90
56332;DHT22;42237;53.340;6.812;2022-09-01T04:57:56;14.60;99.90
56332;DHT22;42237;53.340;6.812;2022-09-01T05:00:25;14.60;99.90
56332;DHT22;42237;53.340;6.812;2022-09-01T05:02:59;14.60;99.90
56332;DHT22;42237;53.340;6.812;2022-09-01T05:05:40;14.60;99.90
56332;DHT22;42237;53.340;6.812;2022-09-01T05:08:16;14.60;99.90
56332;DHT22;42237;53.340;6.812;2022-09-01T05:10:47;14.60;99.90
56332;DHT22;42237;53.340;6.812;2022-09-01T05:13:18;14.60;99.90
56332;DHT22;42237;53.340;6.812;2022-09-01T05:15:45;14.60;99.90
56332;DHT22;42237;53.340;6.812;2022-09-01T05:18:16;14.70;99.90
56332;DHT22;42237;53.340;6.812;2022-09-01T05:20:48;14.70;99.90
56332;DHT22;42237;53.340;6.812;2022-09-01T05:23:14;14.70;99.90
56332;DHT22;42237;53.340;6.812;2022-09-01T05:25:45;14.80;99.90
56332;DHT22;42237;53.340;6.812;2022-09-01T05:28:12;14.80;99.90
56332;DHT22;42237;53.340;6.812;2022-09-01T05:30:40;14.90;99.90
56332;DHT22;42237;53.340;6.812;2022-09-01T05:33:07;14.90;99.90
56332;DHT22;42237;53.340;6.812;2022-09-01T05:35:37;15.00;99.90
56332;DHT22;42237;53.340;6.812;2022-09-01T05:38:06;15.10;99.90
56332;DHT22;42237;53.340;6.812;2022-09-01T05:40:35;15.10;99.90
56332;DHT22;42237;53.340;6.812;2022-09-01T05:43:09;15.20;99.90
56332;DHT22;42237;53.340;6.812;2022-09-01T05:45:42;15.30;99.90
56332;DHT22;42237;53.340;6.812;2022-09-01T05:48:12;15.30;99.90
56332;DHT22;42237;53.340;6.812;2022-09-01T05:50:41;15.40;99.90
56332;DHT22;42237;53.340;6.812;2022-09-01T05:53:09;15.50;99.90
56332;DHT22;42237;53.340;6.812;2022-09-01T05:55:41;15.50;99.90
56332;DHT22;42237;53.340;6.812;2022-09-01T05:58:09;15.60;99.90
56332;DHT22;42237;53.340;6.812;2022-09-01T06:00:41;15.70;99.90
56332;DHT22;42237;53.340;6.812;2022-09-01T06:03:09;15.80;99.90
56332;DHT22;42237;53.340;6.812;2022-09-01T06:05:36;15.90;99.90
56332;DHT22;42237;53.340;6.812;2022-09-01T06:08:03;16.00;99.90
56332;DHT22;42237;53.340;6.812;2022-09-01T06:10:30;16.00;99.90
56332;DHT22;42237;53.340;6.812;2022-09-01T06:12:57;16.10;99.90
56332;DHT22;42237;53.340;6.812;2022-09-01T06:15:30;16.20;99.90
56332;DHT22;42237;53.340;6.812;2022-09-01T06:17:57;16.20;99.90
56332;DHT22;42237;53.340;6.812;2022-09-01T06:20:23;16.20;99.90
56332;DHT22;42237;53.340;6.812;2022-09-01T06:22:49;16.30;99.90
56332;DHT22;42237;53.340;6.812;2022-09-01T06:25:19;16.30;99.90
56332;DHT22;42237;53.340;6.812;2022-09-01T06:27:45;16.30;99.90
56332;DHT22;42237;53.340;6.812;2022-09-01T06:30:14;16.30;99.90
56332;DHT22;42237;53.340;6.812;2022-09-01T06:32:45;16.20;99.90
56332;DHT22;42237;53.340;6.812;2022-09-01T06:35:15;16.20;99.90
56332;DHT22;42237;53.340;6.812;2022-09-01T06:37:41;16.10;99.90
56332;DHT22;42237;53.340;6.812;2022-09-01T06:40:12;16.10;99.90
56332;DHT22;42237;53.340;6.812;2022-09-01T06:42:50;16.00;99.90
56332;DHT22;42237;53.340;6.812;2022-09-01T06:45:19;16.00;99.90
56332;DHT22;42237;53.340;6.812;2022-09-01T06:47:46;15.80;99.90
56332;DHT22;42237;53.340;6.812;2022-09-01T06:50:18;15.80;99.90
56332;DHT22;42237;53.340;6.812;2022-09-01T06:52:47;15.80;99.90
56332;DHT22;42237;53.340;6.812;2022-09-01T06:55:15;15.70;99.90
56332;DHT22;42237;53.340;6.812;2022-09-01T06:57:42;15.70;99.90
56332;DHT22;42237;53.340;6.812;2022-09-01T07:00:14;15.70;99.90
56332;DHT22;42237;53.340;6.812;2022-09-01T07:02:47;15.80;99.90
56332;DHT22;42237;53.340;6.812;2022-09-01T07:05:14;15.80;99.90
56332;DHT22;42237;53.340;6.812;2022-09-01T07:07:48;15.90;99.90
56332;DHT22;42237;53.340;6.812;2022-09-01T07:10:16;15.90;99.90
56332;DHT22;42237;53.340;6.812;2022-09-01T07:12:45;16.00;99.90
56332;DHT22;42237;53.340;6.812;2022-09-01T07:15:12;16.10;99.90
56332;DHT22;42237;53.340;6.812;2022-09-01T07:17:45;16.20;99.90
56332;DHT22;42237;53.340;6.812;2022-09-01T07:20:13;16.30;99.90
56332;DHT22;42237;53.340;6.812;2022-09-01T07:22:40;16.40;99.90
56332;DHT22;42237;53.340;6.812;2022-09-01T07:25:07;16.50;99.90
56332;DHT22;42237;53.340;6.812;2022-09-01T07:27:35;16.60;99.90
56332;DHT22;42237;53.340;6.812;2022-09-01T07:30:01;16.60;99.90
56332;DHT22;42237;53.340;6.812;2022-09-01T07:32:27;16.70;99.90
56332;DHT22;42237;53.340;6.812;2022-09-01T07:34:55;16.80;99.90
56332;DHT22;42237;53.340;6.812;2022-09-01T07:37:21;16.90;99.90
56332;DHT22;42237;53.340;6.812;2022-09-01T07:39:47;16.90;99.90
56332;DHT22;42237;53.340;6.812;2022-09-01T07:42:16;17.10;99.90
56332;DHT22;42237;53.340;6.812;2022-09-01T07:44:42;17.10;99.90
56332;DHT22;42237;53.340;6.812;2022-09-01T07:47:09;17.20;99.90
56332;DHT22;42237;53.340;6.812;2022-09-01T07:49:36;17.30;99.90
56332;DHT22;42237;53.340;6.812;2022-09-01T07:52:03;17.40;99.90
56332;DHT22;42237;53.340;6.812;2022-09-01T07:54:30;17.50;99.90
56332;DHT22;42237;53.340;6.812;2022-09-01T07:56:55;17.60;99.90
56332;DHT22;42237;53.340;6.812;2022-09-01T07:59:21;17.60;99.90
56332;DHT22;42237;53.340;6.812;2022-09-01T08:01:47;17.60;99.90
56332;DHT22;42237;53.340;6.812;2022-09-01T08:04:14;17.60;99.90
56332;DHT22;42237;53.340;6.812;2022-09-01T08:06:39;17.60;99.90
56332;DHT22;42237;53.340;6.812;2022-09-01T08:09:05;17.60;99.90
56332;DHT22;42237;53.340;6.812;2022-09-01T08:11:32;17.60;99.90
56332;DHT22;42237;53.340;6.812;2022-09-01T08:13:59;17.60;99.90
56332;DHT22;42237;53.340;6.812;2022-09-01T08:16:26;17.60;99.90
56332;DHT22;42237;53.340;6.812;2022-09-01T08:18:52;17.60;99.90
56332;DHT22;42237;53.340;6.812;2022-09-01T08:21:19;17.60;99.90
56332;DHT22;42237;53.340;6.812;2022-09-01T08:23:48;17.60;99.90
56332;DHT22;42237;53.340;6.812;2022-09-01T08:26:16;17.70;99.90
56332;DHT22;42237;53.340;6.812;2022-09-01T08:28:42;17.70;99.90
56332;DHT22;42237;53.340;6.812;2022-09-01T08:31:09;17.70;99.90
56332;DHT22;42237;53.340;6.812;2022-09-01T08:33:39;17.80;99.90
56332;DHT22;42237;53.340;6.812;2022-09-01T08:36:10;17.90;99.90
56332;DHT22;42237;53.340;6.812;2022-09-01T08:38:36;17.90;99.90
56332;DHT22;42237;53.340;6.812;2022-09-01T08:41:04;17.90;99.90
56332;DHT22;42237;53.340;6.812;2022-09-01T08:46:00;17.90;99.90
56332;DHT22;42237;53.340;6.812;2022-09-01T08:48:37;18.00;99.90
56332;DHT22;42237;53.340;6.812;2022-09-01T08:56:31;18.10;99.90
56332;DHT22;42237;53.340;6.812;2022-09-01T08:59:01;18.10;99.90
56332;DHT22;42237;53.340;6.812;2022-09-01T09:01:43;18.10;99.90
56332;DHT22;42237;53.340;6.812;2022-09-01T09:10:02;18.20;99.90
56332;DHT22;42237;53.340;6.812;2022-09-01T09:15:30;18.30;99.90
56332;DHT22;42237;53.340;6.812;2022-09-01T09:18:32;18.40;99.90
56332;DHT22;42237;53.340;6.812;2022-09-01T09:21:13;18.40;99.90
56332;DHT22;42237;53.340;6.812;2022-09-01T09:23:45;18.40;99.90
56332;DHT22;42237;53.340;6.812;2022-09-01T09:26:12;18.50;99.90
56332;DHT22;42237;53.340;6.812;2022-09-01T09:28:38;18.50;99.90
56332;DHT22;42237;53.340;6.812;2022-09-01T09:31:24;18.50;99.90
56332;DHT22;42237;53.340;6.812;2022-09-01T09:33:49;18.60;99.90
56332;DHT22;42237;53.340;6.812;2022-09-01T09:36:35;18.60;99.90
56332;DHT22;42237;53.340;6.812;2022-09-01T09:41:29;18.70;99.90
56332;DHT22;42237;53.340;6.812;2022-09-01T09:49:19;18.80;99.90
56332;DHT22;42237;53.340;6.812;2022-09-01T09:54:31;18.90;99.90
56332;DHT22;42237;53.340;6.812;2022-09-01T09:57:13;18.90;99.90
56332;DHT22;42237;53.340;6.812;2022-09-01T09:59:49;19.00;99.90
56332;DHT22;42237;53.340;6.812;2022-09-01T10:02:32;19.00;99.90
56332;DHT22;42237;53.340;6.812;2022-09-01T10:08:05;19.10;99.90
56332;DHT22;42237;53.340;6.812;2022-09-01T10:10:48;19.10;99.90
56332;DHT22;42237;53.340;6.812;2022-09-01T10:13:19;19.20;99.90
56332;DHT22;42237;53.340;6.812;2022-09-01T10:15:57;19.20;99.90
56332;DHT22;42237;53.340;6.812;2022-09-01T10:18:28;19.20;99.90
56332;DHT22;42237;53.340;6.812;2022-09-01T10:21:01;19.30;99.90
56332;DHT22;42237;53.340;6.812;2022-09-01T10:23:30;19.30;99.90
56332;DHT22;42237;53.340;6.812;2022-09-01T10:26:04;19.30;99.90
56332;DHT22;42237;53.340;6.812;2022-09-01T10:28:32;19.40;99.90
56332;DHT22;42237;53.340;6.812;2022-09-01T10:30:58;19.40;99.90
56332;DHT22;42237;53.340;6.812;2022-09-01T10:33:26;19.40;99.90
56332;DHT22;42237;53.340;6.812;2022-09-01T10:35:52;19.50;99.90
56332;DHT22;42237;53.340;6.812;2022-09-01T10:38:24;19.50;99.90
56332;DHT22;42237;53.340;6.812;2022-09-01T10:40:52;19.50;99.90
56332;DHT22;42237;53.340;6.812;2022-09-01T10:43:40;19.50;99.90
56332;DHT22;42237;53.340;6.812;2022-09-01T10:48:41;19.60;99.90
56332;DHT22;42237;53.340;6.812;2022-09-01T10:53:40;19.70;99.90
56332;DHT22;42237;53.340;6.812;2022-09-01T10:59:24;19.80;99.90
56332;DHT22;42237;53.340;6.812;2022-09-01T11:04:18;19.90;99.90
56332;DHT22;42237;53.340;6.812;2022-09-01T11:06:56;19.90;99.90
56332;DHT22;42237;53.340;6.812;2022-09-01T11:09:32;20.00;99.90
56332;DHT22;42237;53.340;6.812;2022-09-01T11:14:28;20.30;99.90
56332;DHT22;42237;53.340;6.812;2022-09-01T11:17:31;20.40;99.90
56332;DHT22;42237;53.340;6.812;2022-09-01T11:20:23;20.50;99.90
56332;DHT22;42237;53.340;6.812;2022-09-01T11:25:49;20.70;99.90
56332;DHT22;42237;53.340;6.812;2022-09-01T11:41:32;20.90;99.90
56332;DHT22;42237;53.340;6.812;2022-09-01T11:44:01;21.00;99.90
56332;DHT22;42237;53.340;6.812;2022-09-01T11:46:30;21.00;99.90
56332;DHT22;42237;53.340;6.812;2022-09-01T11:48:59;21.10;99.90
56332;DHT22;42237;53.340;6.812;2022-09-01T11:51:25;21.10;99.90
56332;DHT22;42237;53.340;6.812;2022-09-01T11:53:57;21.10;99.90
56332;DHT22;42237;53.340;6.812;2022-09-01T11:56:26;21.10;99.90
56332;DHT22;42237;53.340;6.812;2022-09-01T11:58:53;21.20;99.90
56332;DHT22;42237;53.340;6.812;2022-09-01T12:01:31;21.20;99.90
56332;DHT22;42237;53.340;6.812;2022-09-01T12:04:21;21.20;99.90
56332;DHT22;42237;53.340;6.812;2022-09-01T12:06:59;21.20;99.90
56332;DHT22;42237;53.340;6.812;2022-09-01T12:09:43;21.20;99.90
56332;DHT22;42237;53.340;6.812;2022-09-01T12:12:33;21.20;99.90
56332;DHT22;42237;53.340;6.812;2022-09-01T12:15:03;21.10;99.70
56332;DHT22;42237;53.340;6.812;2022-09-01T12:17:29;21.10;99.90
56332;DHT22;42237;53.340;6.812;2022-09-01T12:19:55;21.00;99.90
56332;DHT22;42237;53.340;6.812;2022-09-01T12:22:22;20.90;99.90
56332;DHT22;42237;53.340;6.812;2022-09-01T12:24:52;20.80;99.90
56332;DHT22;42237;53.340;6.812;2022-09-01T12:27:20;20.80;99.70
56332;DHT22;42237;53.340;6.812;2022-09-01T12:29:48;20.80;99.50
56332;DHT22;42237;53.340;6.812;2022-09-01T12:32:15;20.80;99.60
56332;DHT22;42237;53.340;6.812;2022-09-01T12:34:43;20.80;99.40
56332;DHT22;42237;53.340;6.812;2022-09-01T12:37:10;20.80;99.40
56332;DHT22;42237;53.340;6.812;2022-09-01T12:39:44;20.80;99.10
56332;DHT22;42237;53.340;6.812;2022-09-01T12:42:32;20.70;99.20
56332;DHT22;42237;53.340;6.812;2022-09-01T12:44:59;20.70;99.60
56332;DHT22;42237;53.340;6.812;2022-09-01T12:50:02;20.80;99.90
56332;DHT22;42237;53.340;6.812;2022-09-01T12:52:28;20.90;99.90
56332;DHT22;42237;53.340;6.812;2022-09-01T12:57:34;21.10;99.60
56332;DHT22;42237;53.340;6.812;2022-09-01T13:02:43;21.30;99.00
56332;DHT22;42237;53.340;6.812;2022-09-01T13:07:59;21.40;99.50
56332;DHT22;42237;53.340;6.812;2022-09-01T13:10:29;21.50;99.30
56332;DHT22;42237;53.340;6.812;2022-09-01T13:12:56;21.50;99.40
56332;DHT22;42237;53.340;6.812;2022-09-01T13:15:30;21.60;98.80
56332;DHT22;42237;53.340;6.812;2022-09-01T13:17:56;21.60;98.20
56332;DHT22;42237;53.340;6.812;2022-09-01T13:20:22;21.70;98.00
56332;DHT22;42237;53.340;6.812;2022-09-01T13:22:48;21.80;98.00
56332;DHT22;42237;53.340;6.812;2022-09-01T13:25:17;21.80;97.90
56332;DHT22;42237;53.340;6.812;2022-09-01T13:27:44;21.80;97.60
56332;DHT22;42237;53.340;6.812;2022-09-01T13:30:13;21.90;97.50
56332;DHT22;42237;53.340;6.812;2022-09-01T13:32:39;21.90;97.30
56332;DHT22;42237;53.340;6.812;2022-09-01T13:35:05;21.90;96.90
56332;DHT22;42237;53.340;6.812;2022-09-01T13:37:31;22.00;96.90
56332;DHT22;42237;53.340;6.812;2022-09-01T13:39:57;22.00;96.90
56332;DHT22;42237;53.340;6.812;2022-09-01T13:42:22;22.00;96.10
56332;DHT22;42237;53.340;6.812;2022-09-01T13:44:48;22.00;95.70
56332;DHT22;42237;53.340;6.812;2022-09-01T13:47:14;22.10;95.80
56332;DHT22;42237;53.340;6.812;2022-09-01T13:49:40;22.10;95.20
56332;DHT22;42237;53.340;6.812;2022-09-01T13:52:05;22.10;94.60
56332;DHT22;42237;53.340;6.812;2022-09-01T13:54:31;22.20;94.60
56332;DHT22;42237;53.340;6.812;2022-09-01T13:56:57;22.20;94.50
56332;DHT22;42237;53.340;6.812;2022-09-01T13:59:23;22.20;94.40
56332;DHT22;42237;53.340;6.812;2022-09-01T14:01:50;22.30;94.20
56332;DHT22;42237;53.340;6.812;2022-09-01T14:04:16;22.30;94.00
56332;DHT22;42237;53.340;6.812;2022-09-01T14:06:45;22.40;94.10
56332;DHT22;42237;53.340;6.812;2022-09-01T14:09:12;22.40;94.00
56332;DHT22;42237;53.340;6.812;2022-09-01T14:11:38;22.40;93.90
56332;DHT22;42237;53.340;6.812;2022-09-01T14:14:04;22.50;93.30
56332;DHT22;42237;53.340;6.812;2022-09-01T14:16:31;22.50;93.50
56332;DHT22;42237;53.340;6.812;2022-09-01T14:18:57;22.50;93.60
56332;DHT22;42237;53.340;6.812;2022-09-01T14:21:27;22.50;93.60
56332;DHT22;42237;53.340;6.812;2022-09-01T14:23:53;22.60;94.20
56332;DHT22;42237;53.340;6.812;2022-09-01T14:26:19;22.60;93.80
56332;DHT22;42237;53.340;6.812;2022-09-01T14:28:45;22.60;94.00
56332;DHT22;42237;53.340;6.812;2022-09-01T14:31:15;22.70;93.40
56332;DHT22;42237;53.340;6.812;2022-09-01T14:33:42;22.70;93.70
56332;DHT22;42237;53.340;6.812;2022-09-01T14:36:19;22.80;93.40
56332;DHT22;42237;53.340;6.812;2022-09-01T14:38:46;22.80;92.80
56332;DHT22;42237;53.340;6.812;2022-09-01T14:41:17;22.80;92.80
56332;DHT22;42237;53.340;6.812;2022-09-01T14:43:53;22.90;92.50
56332;DHT22;42237;53.340;6.812;2022-09-01T14:46:20;22.90;92.40
56332;DHT22;42237;53.340;6.812;2022-09-01T14:48:46;23.00;92.60
56332;DHT22;42237;53.340;6.812;2022-09-01T14:51:25;23.00;92.50
56332;DHT22;42237;53.340;6.812;2022-09-01T14:53:52;23.10;91.80
56332;DHT22;42237;53.340;6.812;2022-09-01T14:56:18;23.10;91.70
56332;DHT22;42237;53.340;6.812;2022-09-01T14:58:45;23.20;91.80
56332;DHT22;42237;53.340;6.812;2022-09-01T15:01:13;23.30;91.60
56332;DHT22;42237;53.340;6.812;2022-09-01T15:03:41;23.30;91.40
56332;DHT22;42237;53.340;6.812;2022-09-01T15:06:09;23.30;91.10
56332;DHT22;42237;53.340;6.812;2022-09-01T15:08:38;23.40;90.80
56332;DHT22;42237;53.340;6.812;2022-09-01T15:11:08;23.50;90.50
56332;DHT22;42237;53.340;6.812;2022-09-01T15:13:34;23.60;89.30
56332;DHT22;42237;53.340;6.812;2022-09-01T15:16:00;23.70;88.60
56332;DHT22;42237;53.340;6.812;2022-09-01T15:18:29;23.70;87.10
56332;DHT22;42237;53.340;6.812;2022-09-01T15:20:55;23.80;86.40
56332;DHT22;42237;53.340;6.812;2022-09-01T15:23:24;24.00;85.30
56332;DHT22;42237;53.340;6.812;2022-09-01T15:25:52;24.00;83.90
56332;DHT22;42237;53.340;6.812;2022-09-01T15:28:18;24.10;84.30
56332;DHT22;42237;53.340;6.812;2022-09-01T15:30:45;24.20;84.20
56332;DHT22;42237;53.340;6.812;2022-09-01T15:33:11;24.40;83.80
56332;DHT22;42237;53.340;6.812;2022-09-01T15:35:40;24.50;83.00
56332;DHT22;42237;53.340;6.812;2022-09-01T15:38:06;24.50;83.20
56332;DHT22;42237;53.340;6.812;2022-09-01T15:40:33;24.70;82.80
56332;DHT22;42237;53.340;6.812;2022-09-01T15:42:59;24.80;81.60
56332;DHT22;42237;53.340;6.812;2022-09-01T15:45:26;24.90;80.90
56332;DHT22;42237;53.340;6.812;2022-09-01T15:47:53;25.00;79.70
56332;DHT22;42237;53.340;6.812;2022-09-01T15:50:21;25.10;78.60
56332;DHT22;42237;53.340;6.812;2022-09-01T15:52:51;25.20;78.50
56332;DHT22;42237;53.340;6.812;2022-09-01T15:55:24;25.30;77.90
56332;DHT22;42237;53.340;6.812;2022-09-01T15:57:50;25.40;76.90
56332;DHT22;42237;53.340;6.812;2022-09-01T16:00:20;25.50;76.90
56332;DHT22;42237;53.340;6.812;2022-09-01T16:02:46;25.40;76.20
56332;DHT22;42237;53.340;6.812;2022-09-01T16:05:13;25.10;76.50
56332;DHT22;42237;53.340;6.812;2022-09-01T16:07:39;24.80;77.20
56332;DHT22;42237;53.340;6.812;2022-09-01T16:10:06;24.50;78.00
56332;DHT22;42237;53.340;6.812;2022-09-01T16:12:37;24.10;78.10
56332;DHT22;42237;53.340;6.812;2022-09-01T16:15:04;23.80;79.60
56332;DHT22;42237;53.340;6.812;2022-09-01T16:20:26;23.40;80.70
56332;DHT22;42237;53.340;6.812;2022-09-01T16:25:33;23.10;80.80
56332;DHT22;42237;53.340;6.812;2022-09-01T16:28:03;22.90;82.40
56332;DHT22;42237;53.340;6.812;2022-09-01T16:30:29;22.80;82.70
56332;DHT22;42237;53.340;6.812;2022-09-01T16:33:02;22.70;83.60
56332;DHT22;42237;53.340;6.812;2022-09-01T16:35:44;22.70;83.20
56332;DHT22;42237;53.340;6.812;2022-09-01T16:38:44;22.80;83.40
56332;DHT22;42237;53.340;6.812;2022-09-01T16:46:37;24.40;80.30
56332;DHT22;42237;53.340;6.812;2022-09-01T16:52:01;25.10;77.90
56332;DHT22;42237;53.340;6.812;2022-09-01T16:54:36;25.30;75.90
56332;DHT22;42237;53.340;6.812;2022-09-01T17:00:00;24.80;74.00
56332;DHT22;42237;53.340;6.812;2022-09-01T17:08:29;23.50;77.50
56332;DHT22;42237;53.340;6.812;2022-09-01T17:11:11;23.20;79.20
56332;DHT22;42237;53.340;6.812;2022-09-01T17:13:47;23.00;80.30
56332;DHT22;42237;53.340;6.812;2022-09-01T17:16:24;22.80;81.40
56332;DHT22;42237;53.340;6.812;2022-09-01T17:18:58;22.60;81.20
56332;DHT22;42237;53.340;6.812;2022-09-01T17:21:48;22.40;80.90